Time;durP1;ratioP1;P1;durP2;ratioP2;P2;SDS_P1;SDS_P2;PMS_P1;PMS_P2;Temp;Humidity;BMP_temperature;BMP_pressure;BME280_temperature;BME280_humidity;BME280_pressure;Samples;Min_cycle;Max_cycle;Signal;HPM_P1;HPM_P2
2021/06/02 00:00:26;;;;;;;5.53;2.80;;;;;;;10.08;64.81;98833.31;5044059;28;20072;-62
2021/06/02 00:02:55;;;;;;;3.40;3.00;;;;;;;10.03;64.52;98822.25;5041720;28;20350;-62
2021/06/02 00:05:22;;;;;;;7.33;3.20;;;;;;;9.97;65.34;98827.47;5042902;28;20036;-62
2021/06/02 00:07:49;;;;;;;4.03;3.70;;;;;;;9.92;65.30;98819.00;5044946;28;20340;-62
2021/06/02 00:10:18;;;;;;;5.63;2.70;;;;;;;10.00;64.29;98824.88;5039472;28;20037;-62
2021/06/02 00:12:44;;;;;;;4.00;2.97;;;;;;;9.97;64.49;98818.94;5040472;28;20074;-62
2021/06/02 00:15:11;;;;;;;4.03;2.70;;;;;;;9.95;65.03;98816.41;5042161;28;20120;-62
2021/06/02 00:17:36;;;;;;;3.23;2.93;;;;;;;9.92;64.94;98811.34;5042126;28;20024;-62
2021/06/02 00:20:06;;;;;;;3.27;2.90;;;;;;;9.92;65.46;98813.88;5038983;28;20029;-62
2021/06/02 00:22:32;;;;;;;3.50;3.20;;;;;;;9.82;65.63;98814.88;5041401;28;20278;-62
2021/06/02 00:24:57;;;;;;;3.13;2.47;;;;;;;9.74;66.31;98810.72;5041081;28;20112;-62
2021/06/02 00:27:23;;;;;;;3.20;3.00;;;;;;;9.73;65.90;98809.00;5051042;28;20128;-62
2021/06/02 00:29:50;;;;;;;2.93;2.73;;;;;;;9.68;66.34;98815.91;5039197;28;20029;-62
2021/06/02 00:32:19;;;;;;;3.63;3.10;;;;;;;9.70;66.02;98815.03;5041293;28;20087;-62
2021/06/02 00:34:47;;;;;;;4.50;2.87;;;;;;;9.67;66.28;98816.78;5040166;28;20060;-62
2021/06/02 00:37:13;;;;;;;2.83;2.63;;;;;;;9.57;67.09;98818.59;5041576;28;20325;-62
2021/06/02 00:39:39;;;;;;;3.40;3.03;;;;;;;9.52;66.93;98820.38;5040968;28;20037;-62
2021/06/02 00:42:05;;;;;;;4.80;3.30;;;;;;;9.49;67.78;98815.28;5041406;28;20033;-62
2021/06/02 00:44:30;;;;;;;3.50;3.00;;;;;;;9.42;67.78;98816.25;5044437;28;20473;-62
2021/06/02 00:46:57;;;;;;;4.10;2.90;;;;;;;9.41;67.27;98811.97;5040043;28;20113;-62
2021/06/02 00:49:24;;;;;;;3.80;3.23;;;;;;;9.42;67.56;98806.81;5040118;28;20029;-62
2021/06/02 00:52:01;;;;;;;4.47;3.10;;;;;;;9.39;67.75;98813.69;5041846;28;20040;-62
2021/06/02 00:54:31;;;;;;;3.63;3.27;;;;;;;9.36;67.86;98809.47;5051342;28;20057;-62
2021/06/02 00:57:11;;;;;;;4.07;2.80;;;;;;;9.35;67.26;98804.34;5041087;28;20024;-62
2021/06/02 00:59:43;;;;;;;3.73;3.40;;;;;;;9.30;68.21;98814.63;5044536;28;20039;-62
2021/06/02 01:02:36;;;;;;;6.17;3.13;;;;;;;9.42;66.81;98816.25;5059534;28;20048;-62
2021/06/02 01:05:01;;;;;;;4.10;3.17;;;;;;;9.34;67.32;98815.44;5041342;28;20041;-62
2021/06/02 01:07:27;;;;;;;3.10;2.80;;;;;;;9.39;67.28;98819.66;5043994;28;20310;-62
2021/06/02 01:09:57;;;;;;;4.77;3.00;;;;;;;9.36;67.05;98818.84;5044633;28;20072;-62
2021/06/02 01:12:25;;;;;;;3.53;3.23;;;;;;;9.29;67.34;98823.19;5044182;28;20063;-62
2021/06/02 01:14:53;;;;;;;4.80;3.37;;;;;;;9.27;67.55;98816.38;5044281;28;20381;-62
2021/06/02 01:17:21;;;;;;;4.40;2.90;;;;;;;9.22;67.36;98816.44;5044976;28;20029;-62
2021/06/02 01:19:47;;;;;;;6.23;3.27;;;;;;;9.15;68.03;98810.56;5045807;28;20449;-61
2021/06/02 01:22:14;;;;;;;4.07;3.73;;;;;;;9.14;68.02;98813.97;5061492;28;20151;-62
2021/06/02 01:24:40;;;;;;;3.20;2.90;;;;;;;9.11;67.87;98816.56;5044816;28;20061;-61
2021/06/02 01:27:08;;;;;;;3.07;2.50;;;;;;;9.14;68.51;98811.41;5046292;28;20377;-61
2021/06/02 01:29:39;;;;;;;3.50;2.80;;;;;;;9.13;67.69;98819.94;5045153;28;20053;-62
2021/06/02 01:32:23;;;;;;;3.67;2.80;;;;;;;9.18;68.08;98817.34;5045140;28;20549;-61
2021/06/02 01:35:10;;;;;;;3.20;2.90;;;;;;;9.11;67.90;98819.13;5043353;28;20091;-61
2021/06/02 01:37:35;;;;;;;5.60;2.97;;;;;;;9.03;68.79;98808.13;5045126;28;20029;-61
2021/06/02 01:40:03;;;;;;;3.33;3.03;;;;;;;9.04;68.76;98817.47;5043219;28;20060;-61
2021/06/02 01:42:43;;;;;;;5.13;3.00;;;;;;;8.98;68.70;98807.31;5046275;28;20036;-61
2021/06/02 01:45:37;;;;;;;4.63;3.10;;;;;;;8.96;68.75;98803.06;5041984;28;20061;-61
2021/06/02 01:48:21;;;;;;;4.30;3.20;;;;;;;8.87;69.35;98804.00;5018576;28;20038;-62
2021/06/02 01:51:21;;;;;;;4.77;3.13;;;;;;;8.90;69.02;98800.59;5045791;28;20037;-61
2021/06/02 01:53:48;;;;;;;3.90;2.80;;;;;;;8.87;69.17;98801.44;5033967;28;20047;-61
2021/06/02 01:56:41;;;;;;;3.90;3.50;;;;;;;8.88;69.19;98802.28;5042816;28;20692;-62
2021/06/02 01:59:44;;;;;;;3.83;3.20;;;;;;;8.87;68.86;98804.00;5042022;28;20033;-62
2021/06/02 02:02:47;;;;;;;4.23;3.20;;;;;;;8.81;68.77;98804.06;5043902;28;20091;-61
2021/06/02 02:05:31;;;;;;;4.13;3.13;;;;;;;8.82;69.45;98807.47;5040441;28;20358;-61
2021/06/02 02:08:15;;;;;;;4.53;3.90;;;;;;;8.75;69.48;98803.25;5041295;28;20041;-62
2021/06/02 02:10:50;;;;;;;2.90;2.60;;;;;;;8.75;69.54;98803.25;5043255;28;20071;-62
2021/06/02 02:13:34;;;;;;;;;;;;;;;8.73;69.67;98807.56;5043472;28;20045;-62
2021/06/02 02:16:17;;;;;;;6.43;2.80;;;;;;;8.70;69.35;98809.25;5044489;28;19995;-64
2021/06/02 02:19:02;;;;;;;5.93;3.20;;;;;;;8.68;69.58;98813.56;5046621;28;20043;-63
2021/06/02 02:21:43;;;;;;;4.13;2.90;;;;;;;8.62;69.88;98813.59;5045793;28;20029;-62
2021/06/02 02:24:11;;;;;;;3.50;3.20;;;;;;;8.58;69.96;98811.94;5052982;28;20375;-62
2021/06/02 02:26:42;;;;;;;4.93;2.83;;;;;;;8.61;69.68;98811.06;5045158;28;20044;-62
2021/06/02 02:29:29;;;;;;;6.37;3.40;;;;;;;8.64;69.71;98805.94;5046606;28;20064;-62
2021/06/02 02:32:34;;;;;;;3.80;3.50;;;;;;;8.68;69.10;98808.44;5059563;28;20033;-62
2021/06/02 02:35:21;;;;;;;4.10;3.10;;;;;;;8.62;70.02;98815.28;5032720;28;20042;-62
2021/06/02 02:37:58;;;;;;;6.93;3.80;;;;;;;8.60;69.76;98806.81;5043181;28;20248;-62
2021/06/02 02:40:44;;;;;;;4.33;3.30;;;;;;;8.53;70.21;98806.00;5046649;28;20028;-62
2021/06/02 02:43:16;;;;;;;5.13;3.57;;;;;;;8.50;70.17;98810.28;5044200;28;20072;-62
2021/06/02 02:45:56;;;;;;;3.47;3.17;;;;;;;8.54;70.20;98811.97;5044257;28;20033;-62
2021/06/02 02:48:37;;;;;;;5.03;3.40;;;;;;;8.51;70.19;98806.88;5043001;28;20021;-63
2021/06/02 02:51:23;;;;;;;3.97;2.87;;;;;;;8.51;70.07;98812.84;5052461;28;20518;-63
2021/06/02 02:54:07;;;;;;;;;;;;;;;8.45;70.40;98814.59;5041977;28;20024;-62
2021/06/02 02:56:49;;;;;;;5.30;3.37;;;;;;;8.44;70.10;98808.66;5042852;28;19947;-63
2021/06/02 02:59:23;;;;;;;8.00;3.40;;;;;;;8.42;69.91;98820.56;5044887;28;20029;-63
2021/06/02 03:02:26;;;;;;;4.05;2.92;;;;;;;8.42;70.18;98817.16;5043511;28;20032;-63
2021/06/02 03:04:56;;;;;;;6.60;3.63;;;;;;;8.44;70.22;98812.91;5042257;28;20025;-61
2021/06/02 03:07:22;;;;;;;4.20;3.90;;;;;;;8.32;70.22;98800.22;5046159;28;20053;-60
2021/06/02 03:09:54;;;;;;;3.83;3.07;;;;;;;8.35;70.51;98807.88;5044656;28;20025;-60
2021/06/02 03:12:26;;;;;;;4.33;3.20;;;;;;;8.33;70.75;98810.41;5055720;28;20037;-60
2021/06/02 03:15:04;;;;;;;4.23;3.83;;;;;;;8.31;70.80;98811.31;5044041;28;20065;-60
2021/06/02 03:17:32;;;;;;;4.00;3.60;;;;;;;8.30;70.82;98820.66;5045571;28;20428;-61
2021/06/02 03:20:09;;;;;;;3.40;3.10;;;;;;;8.29;71.11;98824.06;5043292;28;20107;-60
2021/06/02 03:23:06;;;;;;;7.70;3.17;;;;;;;8.32;70.72;98829.16;5044601;28;20029;-61
2021/06/02 03:25:34;;;;;;;7.70;3.40;;;;;;;8.37;70.45;98829.13;5044114;28;20025;-66
2021/06/02 03:28:12;;;;;;;3.30;3.00;;;;;;;8.34;70.82;98831.72;5046672;28;20044;-60
2021/06/02 03:31:01;;;;;;;11.53;4.03;;;;;;;8.39;71.11;98824.88;5043524;28;20025;-63
2021/06/02 03:33:36;;;;;;;4.37;3.40;;;;;;;8.41;70.96;98828.25;5041628;28;20059;-61
2021/06/02 03:36:20;;;;;;;6.70;3.33;;;;;;;8.44;70.55;98835.91;5044275;28;20878;-61
2021/06/02 03:39:07;;;;;;;4.83;3.47;;;;;;;8.55;70.82;98837.50;5043122;28;20264;-62
2021/06/02 03:41:46;;;;;;;3.10;2.90;;;;;;;8.62;70.32;98830.63;5039268;28;20045;-61
2021/06/02 03:44:17;;;;;;;5.40;3.50;;;;;;;8.62;70.05;98839.16;5044500;28;20044;-63
2021/06/02 03:46:58;;;;;;;5.20;3.30;;;;;;;8.75;70.11;98836.50;5057657;28;20116;-62
2021/06/02 03:49:34;;;;;;;4.90;4.20;;;;;;;8.89;69.51;98832.13;5043240;28;20040;-62
2021/06/02 03:52:09;;;;;;;5.70;4.13;;;;;;;9.04;69.25;98832.81;5042322;28;20064;-62
2021/06/02 03:55:09;;;;;;;3.50;3.20;;;;;;;9.18;67.98;98825.84;5040912;28;20047;-62
2021/06/02 03:57:39;;;;;;;4.07;3.63;;;;;;;9.39;67.94;98834.16;5043595;28;20037;-62
2021/06/02 04:00:20;;;;;;;4.43;3.13;;;;;;;9.47;67.31;98833.22;5042844;28;20324;-62
2021/06/02 04:03:00;;;;;;;3.50;3.20;;;;;;;9.73;66.47;98843.16;5042600;28;20029;-62
2021/06/02 04:06:03;;;;;;;7.03;3.80;;;;;;;9.85;66.32;98840.44;5041226;28;20413;-62
2021/06/02 04:08:29;;;;;;;5.27;3.40;;;;;;;9.91;65.43;98835.25;5059491;28;20073;-63
2021/06/02 04:11:21;;;;;;;8.90;3.57;;;;;;;10.04;65.70;98834.22;5041213;28;20063;-63
2021/06/02 04:13:58;;;;;;;3.67;3.30;;;;;;;10.22;65.55;98837.41;5049741;28;20033;-62
2021/06/02 04:16:44;;;;;;;5.70;3.80;;;;;;;10.18;65.72;98836.63;5042068;28;20029;-63
2021/06/02 04:19:14;;;;;;;5.47;3.22;;;;;;;10.32;64.66;98829.56;5042652;28;20454;-62
2021/06/02 04:21:44;;;;;;;4.30;3.83;;;;;;;10.47;64.77;98825.94;5041528;28;20033;-64
2021/06/02 04:24:17;;;;;;;3.67;3.37;;;;;;;10.54;64.92;98830.09;5044006;28;20027;-62
2021/06/02 04:26:43;;;;;;;3.23;2.93;;;;;;;10.61;63.88;98835.97;5041494;28;20029;-63
2021/06/02 04:29:11;;;;;;;3.93;3.60;;;;;;;10.75;63.36;98832.31;5042265;28;20608;-63
2021/06/02 04:31:43;;;;;;;3.53;3.23;;;;;;;10.77;63.74;98845.97;5040109;28;20629;-62
2021/06/02 04:34:09;;;;;;;3.30;3.00;;;;;;;10.94;63.23;98833.69;5056542;28;20036;-61
2021/06/02 04:36:34;;;;;;;7.17;3.33;;;;;;;11.08;62.74;98837.72;5040328;28;20033;-62
2021/06/02 04:39:00;;;;;;;5.50;3.60;;;;;;;11.27;62.28;98839.94;5040185;28;20134;-61
2021/06/02 04:41:28;;;;;;;9.50;5.03;;;;;;;11.51;62.36;98838.63;5041291;28;20413;-62
2021/06/02 04:43:56;;;;;;;4.17;3.07;;;;;;;11.56;61.57;98833.41;5042931;28;20093;-61
2021/06/02 04:46:22;;;;;;;3.87;3.50;;;;;;;11.72;60.96;98833.09;5042534;28;20064;-62
2021/06/02 04:48:49;;;;;;;5.77;2.90;;;;;;;11.89;60.75;98838.72;5042168;28;20087;-62
2021/06/02 04:51:42;;;;;;;3.47;3.17;;;;;;;12.17;60.13;98843.28;5041081;28;20057;-62
2021/06/02 04:54:45;;;;;;;5.07;3.07;;;;;;;12.44;59.11;98842.66;5040907;28;20037;-63
2021/06/02 04:57:35;;;;;;;3.08;2.85;;;;;;;12.79;58.49;98844.41;5044513;28;20021;-64
2021/06/02 05:00:09;;;;;;;5.35;3.05;;;;;;;13.09;57.78;98842.78;5056150;28;20323;-62
2021/06/02 05:02:53;;;;;;;4.22;3.40;;;;;;;13.39;57.06;98847.16;5040019;28;20424;-62
2021/06/02 05:05:46;;;;;;;3.50;3.20;;;;;;;13.42;56.23;98851.38;5042222;28;20029;-62
2021/06/02 05:08:49;;;;;;;3.65;3.30;;;;;;;13.67;55.96;98845.50;5040497;28;20104;-62
2021/06/02 05:11:17;;;;;;;4.50;3.13;;;;;;;13.78;55.91;98849.53;5037002;28;20045;-63
2021/06/02 05:14:04;;;;;;;5.32;3.28;;;;;;;13.80;55.90;98850.31;5042861;28;20039;-62
2021/06/02 05:16:41;;;;;;;4.38;3.42;;;;;;;13.92;55.73;98853.38;5060328;28;20328;-63
2021/06/02 05:22:13;;;;;;;4.70;3.70;;;;;;;13.84;56.17;98857.94;5042642;28;20344;-62
2021/06/02 05:25:09;;;;;;;3.95;3.53;;;;;;;13.92;55.84;98863.69;5042158;28;20302;-62
2021/06/02 05:27:40;;;;;;;;;;;;;;;13.92;56.33;98862.88;5042630;28;20042;-62
2021/06/02 05:30:30;;;;;;;4.80;4.20;;;;;;;14.09;56.62;98856.31;5041364;28;20194;-62
2021/06/02 05:33:07;;;;;;;4.50;3.60;;;;;;;14.26;55.94;98860.97;5040494;28;20152;-64
2021/06/02 05:35:43;;;;;;;4.45;3.85;;;;;;;14.51;54.45;98850.81;5041656;28;20106;-62
2021/06/02 05:38:31;;;;;;;6.00;3.80;;;;;;;14.57;55.02;98853.19;5041432;28;20035;-62
2021/06/02 05:41:09;;;;;;;5.53;3.63;;;;;;;14.69;54.52;98850.22;5038811;28;20038;-64
2021/06/02 05:44:12;;;;;;;11.00;4.57;;;;;;;14.63;55.40;98860.75;5038386;28;20139;-63
2021/06/02 05:46:56;;;;;;;6.28;4.20;;;;;;;14.88;54.75;98853.91;5041709;28;20029;-63
2021/06/02 05:49:39;;;;;;;8.32;3.90;;;;;;;14.92;54.52;98854.63;5044025;28;20385;-63
2021/06/02 05:52:18;;;;;;;5.32;3.60;;;;;;;15.17;53.08;98852.06;5061256;28;20197;-63
2021/06/02 05:55:00;;;;;;;7.43;3.53;;;;;;;15.44;51.04;98851.97;5046566;28;20511;-62
2021/06/02 05:58:03;;;;;;;9.77;4.65;;;;;;;15.66;50.32;98846.09;5043389;28;20124;-62
2021/06/02 06:01:06;;;;;;;6.68;4.07;;;;;;;15.89;49.17;98854.69;5044173;28;20056;-62
2021/06/02 06:03:50;;;;;;;8.63;3.78;;;;;;;16.00;48.39;98851.69;5059525;28;20057;-63
2021/06/02 06:06:29;;;;;;;7.40;3.70;;;;;;;16.14;47.71;98853.75;5043283;28;20039;-63
2021/06/02 06:09:31;;;;;;;9.82;4.53;;;;;;;16.32;47.41;98853.91;5043767;28;20036;-61
2021/06/02 06:12:34;;;;;;;6.07;4.28;;;;;;;16.45;47.07;98857.72;5043345;28;20333;-62
2021/06/02 06:15:21;;;;;;;3.92;3.53;;;;;;;16.56;47.11;98854.69;5059764;28;20033;-61
2021/06/02 06:17:58;;;;;;;5.57;3.45;;;;;;;16.54;46.98;98856.50;5045242;28;20183;-63
2021/06/02 06:20:38;;;;;;;5.43;3.45;;;;;;;16.64;47.08;98857.00;5045344;28;20040;-64
2021/06/02 06:23:18;;;;;;;10.80;4.05;;;;;;;16.59;46.98;98862.34;5045924;28;20037;-62
2021/06/02 06:25:55;;;;;;;6.57;4.00;;;;;;;16.79;47.03;98861.59;5045587;28;20044;-62
2021/06/02 06:28:45;;;;;;;6.03;3.90;;;;;;;16.97;45.97;98860.84;5042869;28;20025;-63
2021/06/02 06:31:16;;;;;;;6.72;3.78;;;;;;;17.06;47.08;98857.84;5045266;28;20071;-63
2021/06/02 06:33:43;;;;;;;4.60;3.92;;;;;;;17.17;46.83;98857.41;5043097;28;20299;-63
2021/06/02 06:36:10;;;;;;;5.05;3.90;;;;;;;17.32;46.80;98859.34;5057368;28;20691;-63
2021/06/02 06:39:02;;;;;;;4.97;3.30;;;;;;;17.40;46.75;98859.84;5044521;28;20401;-63
2021/06/02 06:41:30;;;;;;;3.80;3.50;;;;;;;17.54;46.69;98860.13;5059055;28;20049;-63
2021/06/02 06:43:58;;;;;;;5.75;3.45;;;;;;;17.60;47.12;98861.66;5045530;28;20032;-63
2021/06/02 06:46:25;;;;;;;6.32;3.47;;;;;;;17.69;46.62;98859.50;5048958;28;20037;-63
2021/06/02 06:48:52;;;;;;;4.80;4.07;;;;;;;17.83;46.05;98863.19;5048218;28;20112;-63
2021/06/02 06:51:24;;;;;;;4.25;3.65;;;;;;;18.03;46.21;98868.38;5042600;28;20278;-63
2021/06/02 06:53:52;;;;;;;5.47;3.80;;;;;;;17.91;45.54;98858.53;5041254;28;20325;-63
2021/06/02 06:56:19;;;;;;;5.75;3.72;;;;;;;18.06;46.53;98865.63;5042806;28;20536;-63
2021/06/02 06:58:45;;;;;;;5.57;3.88;;;;;;;18.06;45.54;98863.03;5044760;28;20029;-63
2021/06/02 07:01:14;;;;;;;7.28;4.00;;;;;;;18.14;45.74;98868.69;5042485;28;20391;-63
2021/06/02 07:03:41;;;;;;;6.03;3.90;;;;;;;17.89;45.76;98866.38;5043967;28;20037;-63
2021/06/02 07:06:07;;;;;;;7.70;3.85;;;;;;;17.98;45.68;98865.13;5043302;28;20521;-63
2021/06/02 07:08:33;;;;;;;6.20;4.32;;;;;;;18.13;45.55;98865.25;5046135;28;20045;-62
2021/06/02 07:11:02;;;;;;;6.95;4.25;;;;;;;18.13;45.96;98867.88;5044295;28;20072;-63
2021/06/02 07:13:30;;;;;;;7.15;3.45;;;;;;;17.90;45.58;98864.63;5044623;28;20032;-63
2021/06/02 07:15:59;;;;;;;8.02;3.97;;;;;;;17.86;46.04;98866.53;5043231;28;20036;-63
2021/06/02 07:18:25;;;;;;;4.28;3.80;;;;;;;18.06;46.49;98863.03;5041457;28;20086;-63
2021/06/02 07:20:53;;;;;;;7.15;4.22;;;;;;;18.01;46.35;98865.81;5044411;28;20049;-63
2021/06/02 07:23:18;;;;;;;8.52;5.63;;;;;;;18.18;45.62;98865.91;5043376;28;20038;-63
2021/06/02 07:25:44;;;;;;;3.78;3.47;;;;;;;18.36;45.08;98858.19;5043260;28;20047;-63
2021/06/02 07:28:11;;;;;;;11.18;4.03;;;;;;;18.42;45.14;98857.88;5042608;28;20056;-62
2021/06/02 07:30:37;;;;;;;5.55;3.92;;;;;;;18.49;45.59;98854.94;5042857;28;20120;-63
2021/06/02 07:33:04;;;;;;;4.65;4.05;;;;;;;18.62;44.56;98853.47;5044538;28;20033;-62
2021/06/02 07:35:31;;;;;;;6.47;4.03;;;;;;;18.73;44.33;98852.94;5042975;28;20460;-62
2021/06/02 07:37:56;;;;;;;6.70;4.07;;;;;;;18.88;44.31;98844.41;5042258;28;20398;-62
2021/06/02 07:40:23;;;;;;;7.28;4.13;;;;;;;18.77;44.94;98851.88;5042278;28;20031;-61
2021/06/02 07:42:49;;;;;;;6.35;3.88;;;;;;;18.96;44.77;98852.69;5043405;28;20128;-61
2021/06/02 07:45:16;;;;;;;6.45;4.18;;;;;;;19.16;44.20;98852.53;5043430;28;20147;-63
2021/06/02 07:47:41;;;;;;;6.53;4.05;;;;;;;19.39;43.70;98850.53;5041095;28;20037;-61
2021/06/02 07:50:07;;;;;;;5.53;3.80;;;;;;;19.29;43.48;98852.75;5041583;28;20028;-64
2021/06/02 07:52:33;;;;;;;7.22;3.78;;;;;;;19.37;43.90;98854.94;5047933;28;20267;-63
2021/06/02 07:54:59;;;;;;;7.07;4.15;;;;;;;19.47;42.87;98848.41;5046165;28;20048;-63
2021/06/02 07:57:24;;;;;;;4.13;3.58;;;;;;;19.71;43.28;98851.47;5043271;28;20375;-61
2021/06/02 07:59:50;;;;;;;5.40;4.90;;;;;;;19.92;40.96;98847.75;5040028;28;20033;-62
2021/06/02 08:02:15;;;;;;;3.28;2.97;;;;;;;20.17;40.17;98848.09;5046509;28;20043;-63
2021/06/02 08:04:42;;;;;;;7.45;3.80;;;;;;;20.31;40.50;98848.22;5041291;28;20313;-63
2021/06/02 08:07:08;;;;;;;3.67;3.38;;;;;;;20.57;38.53;98853.75;5054452;28;20049;-62
2021/06/02 08:09:34;;;;;;;4.03;3.58;;;;;;;20.79;39.68;98847.22;5041239;28;20362;-63
2021/06/02 08:12:00;;;;;;;3.90;3.28;;;;;;;20.93;39.74;98841.25;5043928;28;20040;-63
2021/06/02 08:14:25;;;;;;;4.95;3.38;;;;;;;20.95;38.47;98842.84;5048011;28;20267;-63
2021/06/02 08:16:51;;;;;;;4.47;3.35;;;;;;;21.05;38.26;98843.13;5045759;28;20092;-62
2021/06/02 08:19:16;;;;;;;3.75;3.45;;;;;;;21.27;39.06;98848.81;5043483;28;20071;-63
2021/06/02 08:21:42;;;;;;;4.72;3.10;;;;;;;21.38;38.15;98846.44;5044210;28;20040;-63
2021/06/02 08:24:07;;;;;;;5.57;2.72;;;;;;;21.57;36.82;98847.91;5043769;28;20029;-63
2021/06/02 08:26:37;;;;;;;4.85;3.30;;;;;;;21.64;36.23;98839.63;5044689;28;20115;-63
2021/06/02 08:29:04;;;;;;;6.25;3.20;;;;;;;21.62;36.87;98851.94;5045083;28;20033;-63
2021/06/02 08:31:29;;;;;;;3.38;3.15;;;;;;;21.62;35.15;98844.09;5044298;28;20244;-63
2021/06/02 08:33:55;;;;;;;3.17;2.85;;;;;;;21.66;35.45;98853.44;5043117;28;20125;-63
2021/06/02 08:36:20;;;;;;;3.72;2.63;;;;;;;21.82;36.31;98848.09;5047700;28;20112;-63
2021/06/02 08:38:46;;;;;;;3.17;2.97;;;;;;;21.93;34.45;98857.94;5044399;28;20043;-63
2021/06/02 08:41:12;;;;;;;4.80;3.00;;;;;;;21.96;34.09;98860.34;5048560;28;20037;-63
2021/06/02 08:43:37;;;;;;;3.72;2.75;;;;;;;22.09;33.80;98858.66;5043991;28;20021;-63
2021/06/02 08:46:03;;;;;;;6.05;3.03;;;;;;;22.06;36.65;98859.72;5045817;28;20031;-64
2021/06/02 08:48:28;;;;;;;2.78;2.42;;;;;;;22.12;34.30;98866.28;5047089;28;20025;-63
2021/06/02 08:50:54;;;;;;;5.88;2.70;;;;;;;22.08;33.59;98851.75;5042768;28;20025;-63
2021/06/02 08:53:20;;;;;;;4.40;3.00;;;;;;;22.13;34.31;98866.22;5041693;28;20048;-63
2021/06/02 08:55:47;;;;;;;4.43;3.17;;;;;;;22.20;35.61;98867.50;5042991;28;20041;-63
2021/06/02 08:58:22;;;;;;;4.53;3.13;;;;;;;22.42;35.78;98860.94;5045750;28;20037;-63
2021/06/02 09:00:49;;;;;;;5.07;3.15;;;;;;;22.29;36.24;98861.72;5044346;28;20075;-63
2021/06/02 09:03:15;;;;;;;4.57;3.17;;;;;;;22.26;36.65;98861.91;5060909;28;20032;-63
2021/06/02 09:05:40;;;;;;;5.10;3.50;;;;;;;22.36;36.70;98859.56;5046938;28;20037;-63
2021/06/02 09:08:11;;;;;;;2.90;2.70;;;;;;;22.46;35.69;98865.88;5045909;28;20054;-63
2021/06/02 09:10:43;;;;;;;4.82;3.08;;;;;;;22.33;35.57;98871.03;5043118;28;20412;-63
2021/06/02 09:13:21;;;;;;;5.13;2.88;;;;;;;22.33;35.80;98867.56;5043510;28;20063;-63
2021/06/02 09:15:54;;;;;;;3.00;2.80;;;;;;;22.39;35.80;98866.34;5046441;28;20116;-63
2021/06/02 09:18:21;;;;;;;3.45;3.22;;;;;;;22.34;36.09;98874.47;5045433;28;20037;-63
2021/06/02 09:20:52;;;;;;;3.25;2.92;;;;;;;22.47;35.83;98871.94;5048046;28;20056;-63
2021/06/02 09:23:45;;;;;;;2.85;2.65;;;;;;;22.25;35.58;98881.13;5049268;28;20082;-63
2021/06/02 09:26:13;;;;;;;4.63;2.78;;;;;;;22.21;34.85;98876.19;5045012;28;20052;-63
2021/06/02 09:28:57;;;;;;;3.60;3.30;;;;;;;22.40;35.35;98879.34;5045320;28;20029;-63
2021/06/02 09:31:28;;;;;;;2.88;2.67;;;;;;;22.22;35.14;98873.47;5046993;28;20393;-63
2021/06/02 09:33:55;;;;;;;3.65;2.90;;;;;;;22.38;35.27;98880.34;5048196;28;20370;-63
2021/06/02 09:36:26;;;;;;;3.45;3.10;;;;;;;22.62;34.83;98884.00;5046638;28;20425;-63
2021/06/02 09:38:53;;;;;;;3.35;3.05;;;;;;;22.59;34.69;98876.38;5046423;28;20055;-63
2021/06/02 09:41:19;;;;;;;4.75;3.33;;;;;;;22.85;35.44;98880.81;5062866;28;20052;-63
2021/06/02 09:43:44;;;;;;;3.08;2.80;;;;;;;22.59;34.45;98882.44;5047171;28;20286;-63
2021/06/02 09:46:13;;;;;;;4.97;3.47;;;;;;;22.63;34.10;98870.00;5048479;28;20402;-63
2021/06/02 09:49:00;;;;;;;4.88;2.65;;;;;;;22.63;34.42;98875.25;5048483;28;20071;-63
2021/06/02 09:51:38;;;;;;;3.67;3.00;;;;;;;22.78;34.55;98879.53;5047692;28;20095;-63
2021/06/02 09:54:08;;;;;;;3.30;2.97;;;;;;;22.83;33.89;98874.00;5063204;28;20029;-63
2021/06/02 09:56:36;;;;;;;3.33;2.92;;;;;;;22.86;33.86;98881.66;5059878;28;20483;-63
2021/06/02 09:59:04;;;;;;;9.27;4.03;;;;;;;22.92;34.87;98871.59;5048462;28;20366;-63
2021/06/02 10:01:58;;;;;;;6.43;4.85;;;;;;;23.18;33.91;98868.13;5046461;28;20044;-63
2021/06/02 10:04:42;;;;;;;4.70;3.03;;;;;;;23.07;33.01;98873.25;5046225;28;20025;-63
2021/06/02 10:07:21;;;;;;;3.60;2.83;;;;;;;23.03;32.69;98866.53;5048700;28;20292;-63
2021/06/02 10:09:47;;;;;;;3.45;3.03;;;;;;;22.95;31.89;98875.81;5047328;28;20286;-63
2021/06/02 10:12:13;;;;;;;4.07;2.65;;;;;;;22.92;32.36;98857.69;5047186;28;20112;-63
2021/06/02 10:15:00;;;;;;;6.38;2.88;;;;;;;23.24;32.27;98866.88;5045549;28;20029;-63
2021/06/02 10:17:28;;;;;;;3.20;2.83;;;;;;;23.36;30.48;98871.28;5044206;28;20040;-63
2021/06/02 10:19:55;;;;;;;3.00;2.63;;;;;;;23.45;31.08;98869.88;5044818;28;20029;-63
2021/06/02 10:22:30;;;;;;;3.42;3.13;;;;;;;23.19;30.53;98869.81;5046172;28;20127;-63
2021/06/02 10:24:58;;;;;;;5.07;2.70;;;;;;;23.41;30.36;98865.75;5047878;28;20053;-63
2021/06/02 10:27:25;;;;;;;2.85;2.50;;;;;;;23.67;30.97;98870.09;5045960;28;20029;-63
2021/06/02 10:29:51;;;;;;;2.90;2.70;;;;;;;23.89;30.33;98859.78;5045238;28;20076;-63
2021/06/02 10:32:17;;;;;;;5.80;3.00;;;;;;;24.01;30.33;98873.84;5050425;28;20303;-63
2021/06/02 10:34:43;;;;;;;4.03;2.72;;;;;;;24.15;28.67;98881.59;5047300;28;20021;-63
2021/06/02 10:37:12;;;;;;;4.97;2.65;;;;;;;24.08;29.05;98865.44;5045121;28;20098;-63
2021/06/02 10:39:40;;;;;;;3.00;2.70;;;;;;;23.99;28.62;98879.16;5045908;28;20068;-63
2021/06/02 10:42:11;;;;;;;4.03;2.83;;;;;;;23.89;29.48;98872.06;5046949;28;20056;-62
2021/06/02 10:44:41;;;;;;;3.15;2.70;;;;;;;23.97;30.83;98878.47;5046029;28;20425;-63
2021/06/02 10:47:07;;;;;;;2.85;2.65;;;;;;;23.98;28.71;98876.66;5043232;28;20401;-63
2021/06/02 10:49:36;;;;;;;4.00;3.22;;;;;;;24.04;29.23;98886.72;5045972;28;20030;-62
2021/06/02 10:52:03;;;;;;;2.67;2.58;;;;;;;24.19;30.29;98877.78;5045911;28;20436;-62
2021/06/02 10:54:37;;;;;;;3.17;2.97;;;;;;;23.88;28.59;98880.88;5047046;28;20040;-63
2021/06/02 10:57:03;;;;;;;9.23;2.63;;;;;;;23.76;29.00;98879.09;5048737;28;20060;-63
2021/06/02 10:59:33;;;;;;;2.80;2.45;;;;;;;23.97;28.99;98886.31;5044654;28;20063;-63
2021/06/02 11:02:13;;;;;;;3.20;2.47;;;;;;;24.03;30.41;98880.63;5046818;28;20057;-63
2021/06/02 11:05:04;;;;;;;4.40;2.50;;;;;;;24.05;29.04;98870.91;5046241;28;20434;-63
2021/06/02 11:07:33;;;;;;;5.10;3.05;;;;;;;24.27;30.20;98879.91;5048988;28;20103;-64
2021/06/02 11:10:04;;;;;;;3.22;2.22;;;;;;;24.27;28.99;98885.16;5048134;28;20074;-63
2021/06/02 11:12:45;;;;;;;4.55;2.70;;;;;;;24.25;29.84;98882.63;5046196;28;20056;-62
2021/06/02 11:15:35;;;;;;;4.00;2.40;;;;;;;24.32;28.45;98890.88;5044597;28;20021;-62
2021/06/02 11:18:10;;;;;;;2.58;2.38;;;;;;;24.46;29.04;98875.84;5046731;28;20120;-62
2021/06/02 11:20:58;;;;;;;2.97;2.55;;;;;;;24.64;28.86;98873.69;5047710;28;20032;-63
2021/06/02 11:23:37;;;;;;;3.58;2.92;;;;;;;24.40;28.72;98892.00;5050032;28;20044;-63
2021/06/02 11:26:26;;;;;;;3.45;2.50;;;;;;;24.36;28.89;98885.31;5048161;28;20300;-64
2021/06/02 11:28:52;;;;;;;3.30;2.55;;;;;;;24.08;28.42;98885.56;5048081;28;20398;-63
2021/06/02 11:31:31;;;;;;;3.85;2.28;;;;;;;24.29;28.71;98884.06;5043013;28;20334;-64
2021/06/02 11:34:28;;;;;;;2.85;2.65;;;;;;;24.40;30.73;98878.09;5043593;28;20124;-63
2021/06/02 11:37:01;;;;;;;4.57;3.10;;;;;;;24.39;28.39;98887.72;5044250;28;20125;-62
2021/06/02 11:39:26;;;;;;;4.97;3.25;;;;;;;23.85;28.51;98887.13;5044192;28;20024;-60
2021/06/02 11:41:57;;;;;;;2.97;2.70;;;;;;;24.14;29.05;98880.72;5061437;28;20264;-62
2021/06/02 11:44:25;;;;;;;2.80;2.60;;;;;;;24.35;30.00;98883.66;5043989;28;20044;-63
2021/06/02 11:46:51;;;;;;;3.25;2.83;;;;;;;24.48;30.24;98889.69;5044720;28;20529;-62
2021/06/02 11:49:33;;;;;;;4.57;2.70;;;;;;;24.60;28.79;98881.88;5042982;28;20051;-62
2021/06/02 11:52:12;;;;;;;2.75;2.55;;;;;;;24.64;28.03;98885.97;5045270;28;20048;-63
2021/06/02 11:54:56;;;;;;;5.07;2.83;;;;;;;24.66;28.98;98886.66;5042505;28;20326;-63
2021/06/02 11:57:32;;;;;;;3.25;2.85;;;;;;;24.47;28.11;98887.19;5042578;28;20100;-62
2021/06/02 12:00:00;;;;;;;2.60;2.45;;;;;;;24.66;29.21;98890.13;5056893;28;20017;-63
2021/06/02 12:02:26;;;;;;;2.92;2.53;;;;;;;24.86;29.62;98883.50;5042141;28;20558;-62
2021/06/02 12:04:51;;;;;;;3.40;2.50;;;;;;;24.94;29.21;98886.38;5041663;28;20033;-62
2021/06/02 12:07:24;;;;;;;3.22;2.92;;;;;;;25.36;28.51;98884.97;5058636;28;20060;-63
2021/06/02 12:09:58;;;;;;;3.08;2.50;;;;;;;25.23;28.81;98886.84;5049558;28;20029;-63
2021/06/02 12:12:25;;;;;;;4.57;2.72;;;;;;;25.40;27.71;98883.78;5042444;28;20426;-63